Time;durP1;ratioP1;P1;durP2;ratioP2;P2;SDS_P1;SDS_P2;PMS_P1;PMS_P2;Temp;Humidity;BMP_temperature;BMP_pressure;BME280_temperature;BME280_humidity;BME280_pressure;Samples;Min_cycle;Max_cycle;Signal;HPM_P1;HPM_P2
2022/09/13 00:01:09;;;;;;;25.00;23.50;;;14.70;93.20;;;;;;5020657;28;21009;-83
2022/09/13 00:03:35;;;;;;;16.67;15.40;;;14.60;93.60;;;;;;5020095;28;20473;-82
2022/09/13 00:06:11;;;;;;;30.37;28.60;;;14.60;93.60;;;;;;5019949;28;20487;-84
2022/09/13 00:08:42;;;;;;;35.50;33.50;;;14.60;94.50;;;;;;5019708;28;20480;-83
2022/09/13 00:11:17;;;;;;;25.80;23.70;;;14.60;94.50;;;;;;5020040;28;20481;-84
2022/09/13 00:13:44;;;;;;;21.13;19.13;;;14.60;94.00;;;;;;5019407;28;20476;-83
2022/09/13 00:16:12;;;;;;;25.67;23.40;;;14.50;93.70;;;;;;5020083;28;20460;-82
2022/09/13 00:18:39;;;;;;;26.33;23.77;;;14.50;93.80;;;;;;5020272;28;20453;-82
2022/09/13 00:21:07;;;;;;;22.10;20.20;;;14.60;93.90;;;;;;5019730;28;20540;-83
2022/09/13 00:23:34;;;;;;;20.97;18.97;;;14.60;94.00;;;;;;5019628;28;20483;-82
2022/09/13 00:26:05;;;;;;;20.47;18.53;;;14.70;93.60;;;;;;5019583;28;20453;-83
2022/09/13 00:28:34;;;;;;;32.00;29.30;;;14.70;93.80;;;;;;5020345;28;20456;-83
2022/09/13 00:31:01;;;;;;;39.90;37.30;;;14.70;94.60;;;;;;5019932;28;20488;-83
2022/09/13 00:33:28;;;;;;;37.03;34.77;;;14.70;94.70;;;;;;5019979;28;20488;-82
2022/09/13 00:35:55;;;;;;;33.90;31.80;;;14.80;94.40;;;;;;5019559;28;20468;-83
2022/09/13 00:38:22;;;;;;;31.50;29.40;;;15.00;94.20;;;;;;5019689;28;20461;-83
2022/09/13 00:40:49;;;;;;;26.00;24.30;;;15.00;93.70;;;;;;5019615;28;20459;-83
2022/09/13 00:43:19;;;;;;;22.43;20.53;;;14.90;93.10;;;;;;5019562;28;20473;-83
2022/09/13 00:45:48;;;;;;;23.67;21.97;;;15.00;93.00;;;;;;5019957;28;20464;-82
2022/09/13 00:48:20;;;;;;;21.87;20.47;;;14.90;93.20;;;;;;5020281;28;20965;-84
2022/09/13 00:50:50;;;;;;;25.30;23.57;;;15.00;93.40;;;;;;5019645;28;20476;-83
2022/09/13 00:53:21;;;;;;;30.53;28.83;;;15.00;93.70;;;;;;5020066;28;20632;-83
2022/09/13 00:55:53;;;;;;;23.90;22.37;;;14.90;94.10;;;;;;5019429;28;20457;-82
2022/09/13 00:58:23;;;;;;;30.77;29.07;;;14.90;94.00;;;;;;5019558;28;20457;-83
2022/09/13 01:00:52;;;;;;;44.97;42.97;;;14.90;94.30;;;;;;5018955;28;20460;-83
2022/09/13 01:03:22;;;;;;;45.30;42.90;;;14.90;94.80;;;;;;5019447;28;20477;-83
2022/09/13 01:05:53;;;;;;;47.10;45.00;;;15.00;95.00;;;;;;5019062;28;20464;-83
2022/09/13 01:08:22;;;;;;;46.93;44.73;;;14.90;95.00;;;;;;5019732;28;20468;-83
2022/09/13 01:10:49;;;;;;;43.43;41.50;;;14.90;95.00;;;;;;5018671;28;20449;-83
2022/09/13 01:13:19;;;;;;;47.27;45.00;;;14.90;94.90;;;;;;5019766;28;20560;-84
2022/09/13 01:15:46;;;;;;;61.30;58.70;;;14.90;95.10;;;;;;5018822;28;20464;-83
2022/09/13 01:18:15;;;;;;;82.23;78.97;;;14.90;95.60;;;;;;5019218;28;20456;-83
2022/09/13 01:21:00;;;;;;;83.53;80.10;;;14.90;96.00;;;;;;5019369;28;20972;-82
2022/09/13 01:23:47;;;;;;;64.33;61.50;;;14.90;96.00;;;;;;5019145;28;20480;-83
2022/09/13 01:26:47;;;;;;;65.70;62.60;;;14.90;95.70;;;;;;5018666;28;20453;-83
2022/09/13 01:29:45;;;;;;;51.63;49.20;;;14.90;95.70;;;;;;5019248;28;20836;-83
2022/09/13 01:32:23;;;;;;;28.90;27.30;;;14.80;95.10;;;;;;5019779;28;20910;-83
2022/09/13 01:35:02;;;;;;;23.07;21.73;;;14.90;94.40;;;;;;5018268;28;20535;-82
2022/09/13 01:37:39;;;;;;;22.70;21.40;;;14.90;94.20;;;;;;5019193;28;20453;-83
2022/09/13 01:40:16;;;;;;;16.53;15.20;;;15.00;94.00;;;;;;5018431;28;20457;-82
2022/09/13 01:42:57;;;;;;;18.23;17.00;;;15.00;93.50;;;;;;5019346;28;20807;-82
2022/09/13 01:45:34;;;;;;;25.77;23.60;;;15.10;93.60;;;;;;5018477;28;20452;-82
2022/09/13 01:48:07;;;;;;;21.30;20.10;;;15.20;94.10;;;;;;5018847;28;20457;-83
2022/09/13 01:50:39;;;;;;;21.90;20.50;;;15.20;94.00;;;;;;5019048;28;20468;-84
2022/09/13 01:53:13;;;;;;;22.70;21.33;;;15.20;93.80;;;;;;5018997;28;20480;-80
2022/09/13 01:55:46;;;;;;;23.27;21.97;;;15.10;94.00;;;;;;5018628;28;20457;-82
2022/09/13 01:58:20;;;;;;;28.23;26.53;;;15.10;94.00;;;;;;5019131;28;20481;-84
2022/09/13 02:00:55;;;;;;;25.20;23.70;;;15.10;94.20;;;;;;5018646;28;20448;-83
2022/09/13 02:03:30;;;;;;;24.57;23.07;;;15.10;94.20;;;;;;5019232;28;20997;-83
2022/09/13 02:06:00;;;;;;;32.40;30.80;;;15.10;94.20;;;;;;5018867;28;20470;-83
2022/09/13 02:08:35;;;;;;;36.50;34.80;;;15.10;94.50;;;;;;5017966;28;20452;-83
2022/09/13 02:11:09;;;;;;;37.07;35.37;;;15.10;94.60;;;;;;5018466;28;20560;-83
2022/09/13 02:13:39;;;;;;;38.30;36.30;;;15.20;94.50;;;;;;5018556;28;20481;-83
2022/09/13 02:16:11;;;;;;;39.17;37.33;;;15.20;94.60;;;;;;5018276;28;20460;-82
2022/09/13 02:18:42;;;;;;;39.17;37.30;;;15.20;94.50;;;;;;5019017;28;20472;-83
2022/09/13 02:21:13;;;;;;;40.23;37.83;;;15.30;94.70;;;;;;5020304;28;20461;-82
2022/09/13 02:23:44;;;;;;;39.90;38.10;;;15.30;94.60;;;;;;5022189;28;20531;-83
2022/09/13 02:26:13;;;;;;;39.17;37.37;;;15.40;94.60;;;;;;5022308;28;20457;-83
2022/09/13 02:28:44;;;;;;;31.57;29.43;;;15.40;94.50;;;;;;5022747;28;20464;-83
2022/09/13 02:31:12;;;;;;;25.80;24.20;;;15.50;94.20;;;;;;5022834;28;20464;-83
2022/09/13 02:33:44;;;;;;;19.90;18.60;;;15.50;93.80;;;;;;5023377;28;20481;-83
2022/09/13 02:36:15;;;;;;;16.50;15.40;;;15.60;93.40;;;;;;5022406;28;20457;-82
2022/09/13 02:38:47;;;;;;;16.10;14.80;;;15.60;93.30;;;;;;5023384;28;20464;-83
2022/09/13 02:41:19;;;;;;;18.67;17.47;;;15.60;93.30;;;;;;5022556;28;20457;-82
2022/09/13 02:43:50;;;;;;;11.40;10.30;;;15.70;93.30;;;;;;5022850;28;20503;-83
2022/09/13 02:46:32;;;;;;;10.93;9.00;;;15.70;93.10;;;;;;5022316;28;20463;-83
2022/09/13 02:49:07;;;;;;;8.50;7.30;;;15.70;92.70;;;;;;5023291;28;20453;-82
2022/09/13 02:51:44;;;;;;;9.73;6.67;;;15.90;92.20;;;;;;5023376;28;20472;-84
2022/09/13 02:54:23;;;;;;;11.90;10.33;;;15.80;92.10;;;;;;5022998;28;20476;-81
2022/09/13 02:56:54;;;;;;;16.57;11.30;;;15.90;92.60;;;;;;5023269;28;20660;-83
2022/09/13 02:59:23;;;;;;;10.80;9.80;;;15.90;93.00;;;;;;5022782;28;20464;-83
2022/09/13 03:01:55;;;;;;;18.23;16.70;;;15.80;92.90;;;;;;5022880;28;20504;-84
2022/09/13 03:04:23;;;;;;;18.33;17.23;;;15.90;93.40;;;;;;5021522;28;20473;-82
2022/09/13 03:06:50;;;;;;;17.40;16.30;;;15.90;93.40;;;;;;5020465;28;20449;-82
2022/09/13 03:09:17;;;;;;;17.87;16.57;;;15.90;93.40;;;;;;5020875;28;20465;-82
2022/09/13 03:12:00;;;;;;;18.30;17.20;;;15.80;93.40;;;;;;5020640;28;20473;-82
2022/09/13 03:14:36;;;;;;;17.50;16.40;;;15.90;94.00;;;;;;5019640;28;20488;-81
2022/09/13 03:17:13;;;;;;;16.93;15.73;;;15.80;94.00;;;;;;5019887;28;20458;-81
2022/09/13 03:19:57;;;;;;;13.40;12.40;;;15.90;94.00;;;;;;5018580;28;20464;-81
2022/09/13 03:22:46;;;;;;;20.50;18.97;;;15.90;94.10;;;;;;5018361;28;20962;-81
2022/09/13 03:25:27;;;;;;;26.53;25.03;;;15.80;94.20;;;;;;5018677;28;20480;-80
2022/09/13 03:28:02;;;;;;;32.27;30.47;;;15.90;94.70;;;;;;5018357;28;20457;-80
2022/09/13 03:30:33;;;;;;;44.83;42.93;;;15.80;95.30;;;;;;5019564;28;20452;-81
2022/09/13 03:33:06;;;;;;;38.90;37.10;;;15.80;95.70;;;;;;5018672;28;20484;-81
2022/09/13 03:35:39;;;;;;;39.17;37.27;;;15.80;96.10;;;;;;5018673;28;20457;-80
2022/09/13 03:38:09;;;;;;;24.87;23.47;;;15.80;95.40;;;;;;5018839;28;20962;-81
2022/09/13 03:40:43;;;;;;;28.27;26.87;;;15.80;95.50;;;;;;5018895;28;20445;-81
2022/09/13 03:43:14;;;;;;;35.40;33.70;;;15.70;95.50;;;;;;5018773;28;20449;-81
2022/09/13 03:45:46;;;;;;;33.10;31.40;;;15.70;95.80;;;;;;5018831;28;20460;-81
2022/09/13 03:48:14;;;;;;;23.90;22.60;;;15.60;95.60;;;;;;5018162;28;20449;-81
2022/09/13 03:50:45;;;;;;;23.67;22.27;;;15.80;95.30;;;;;;5017971;28;20468;-80
2022/09/13 03:53:15;;;;;;;27.17;25.43;;;15.70;95.40;;;;;;5019155;28;20517;-81
2022/09/13 03:55:43;;;;;;;20.53;19.30;;;15.70;95.20;;;;;;5019515;28;20460;-81
2022/09/13 03:58:12;;;;;;;24.27;22.83;;;15.70;95.10;;;;;;5018748;28;20464;-80
2022/09/13 04:00:40;;;;;;;30.67;29.07;;;15.70;95.00;;;;;;5019140;28;20456;-82
2022/09/13 04:03:07;;;;;;;48.93;46.77;;;15.80;95.40;;;;;;5018044;28;20520;-81
2022/09/13 04:05:34;;;;;;;68.70;65.73;;;15.80;96.00;;;;;;5017930;28;20457;-81
2022/09/13 04:08:04;;;;;;;66.30;63.60;;;15.70;96.50;;;;;;5017855;28;20453;-80
2022/09/13 04:10:31;;;;;;;94.20;90.23;;;15.80;96.50;;;;;;5017106;28;20453;-81
2022/09/13 04:12:59;;;;;;;104.93;100.87;;;15.70;97.10;;;;;;5018277;28;20528;-80
2022/09/13 04:15:26;;;;;;;125.17;120.47;;;15.80;97.60;;;;;;5019034;28;21051;-80
2022/09/13 04:17:52;;;;;;;142.03;137.00;;;15.80;98.00;;;;;;5018165;28;20953;-81
2022/09/13 04:20:19;;;;;;;150.90;145.43;;;15.70;98.60;;;;;;5018417;28;20458;-80
2022/09/13 04:22:51;;;;;;;128.50;123.90;;;15.70;98.90;;;;;;5018147;28;20457;-81
2022/09/13 04:25:20;;;;;;;146.73;141.40;;;15.70;98.30;;;;;;5017848;28;20453;-79
2022/09/13 04:27:47;;;;;;;195.27;188.40;;;15.70;98.80;;;;;;5018896;28;20457;-80
2022/09/13 04:30:14;;;;;;;243.77;235.10;;;15.60;99.40;;;;;;5018363;28;20950;-80
2022/09/13 04:32:43;;;;;;;249.03;240.13;;;15.70;99.90;;;;;;5017656;28;20473;-80
2022/09/13 04:35:10;;;;;;;250.73;241.43;;;15.70;99.90;;;;;;5016757;28;20543;-80
2022/09/13 04:37:37;;;;;;;242.77;233.90;;;15.70;99.90;;;;;;5018414;28;20448;-81
2022/09/13 04:40:05;;;;;;;208.13;200.03;;;15.60;99.90;;;;;;5017698;28;20453;-79
2022/09/13 04:42:34;;;;;;;213.50;206.10;;;15.70;99.90;;;;;;5016969;28;20459;-80
2022/09/13 04:45:00;;;;;;;195.27;188.43;;;15.70;99.90;;;;;;5015916;28;20479;-80
2022/09/13 04:47:27;;;;;;;213.97;206.67;;;15.60;99.90;;;;;;5016883;28;20614;-80
2022/09/13 04:49:54;;;;;;;241.60;232.90;;;15.70;99.90;;;;;;5016999;28;20452;-81
2022/09/13 04:52:20;;;;;;;254.63;245.53;;;15.60;99.90;;;;;;5018067;28;20500;-80
2022/09/13 04:54:47;;;;;;;281.00;270.80;;;15.70;99.90;;;;;;5017596;28;20477;-81
2022/09/13 04:57:15;;;;;;;290.73;279.73;;;15.80;99.90;;;;;;5017353;28;20460;-82
2022/09/13 04:59:43;;;;;;;362.77;348.47;;;15.80;99.90;;;;;;5018189;28;20541;-81
2022/09/13 05:02:10;;;;;;;358.27;343.87;;;15.70;99.90;;;;;;5018396;28;20449;-82
2022/09/13 05:04:37;;;;;;;412.63;395.13;;;15.80;99.90;;;;;;5016412;28;20478;-80
2022/09/13 05:07:07;;;;;;;440.40;422.00;;;15.80;99.90;;;;;;5018609;28;21164;-80
2022/09/13 05:09:37;;;;;;;427.37;409.43;;;15.70;99.90;;;;;;5017702;28;20868;-81
2022/09/13 05:12:05;;;;;;;403.60;387.10;;;15.70;99.90;;;;;;5017854;28;20484;-81
2022/09/13 05:14:32;;;;;;;395.77;379.37;;;15.80;99.90;;;;;;5018298;28;20485;-82
2022/09/13 05:17:00;;;;;;;374.00;359.23;;;15.80;99.90;;;;;;5018370;28;20889;-81
2022/09/13 05:19:26;;;;;;;371.77;357.37;;;15.80;99.90;;;;;;5018317;28;20537;-81
2022/09/13 05:21:53;;;;;;;322.67;310.23;;;15.80;99.90;;;;;;5016563;28;20457;-81
2022/09/13 05:24:20;;;;;;;272.47;262.17;;;15.90;99.90;;;;;;5016917;28;20564;-80
2022/09/13 05:26:47;;;;;;;248.60;240.30;;;15.90;99.90;;;;;;5016610;28;20453;-80
2022/09/13 05:29:13;;;;;;;228.77;220.87;;;16.00;99.90;;;;;;5016758;28;20457;-82
2022/09/13 05:31:42;;;;;;;279.87;270.17;;;16.10;99.90;;;;;;5014886;28;20461;-83
2022/09/13 05:34:12;;;;;;;330.10;317.80;;;16.10;99.90;;;;;;5016480;28;20494;-80
2022/09/13 05:36:40;;;;;;;322.07;310.23;;;16.00;99.90;;;;;;5017434;28;20464;-80
2022/09/13 05:39:07;;;;;;;312.43;301.13;;;16.00;99.90;;;;;;5017167;28;20820;-82
2022/09/13 05:41:34;;;;;;;269.47;260.23;;;16.00;99.90;;;;;;5018903;28;20463;-81
2022/09/13 05:44:01;;;;;;;264.93;255.43;;;16.00;99.90;;;;;;5018336;28;20476;-80
2022/09/13 05:46:28;;;;;;;275.43;265.83;;;16.10;99.90;;;;;;5018494;28;20463;-81
2022/09/13 05:48:58;;;;;;;262.27;253.30;;;16.20;99.90;;;;;;5018020;28;20457;-81
2022/09/13 05:51:26;;;;;;;262.90;253.70;;;16.20;99.90;;;;;;5016688;28;20458;-81
2022/09/13 05:53:54;;;;;;;233.93;226.03;;;16.20;99.90;;;;;;5016741;28;20486;-82
2022/09/13 05:56:23;;;;;;;214.57;207.47;;;16.20;99.90;;;;;;5020005;28;20993;-81
2022/09/13 05:58:52;;;;;;;138.07;133.20;;;16.30;99.90;;;;;;5020968;28;20504;-81
2022/09/13 06:01:20;;;;;;;107.73;103.80;;;16.40;99.20;;;;;;5021442;28;20823;-80
2022/09/13 06:03:48;;;;;;;90.23;86.83;;;16.50;98.40;;;;;;5020747;28;20854;-81
2022/09/13 06:06:15;;;;;;;71.63;68.50;;;16.50;98.10;;;;;;5021299;28;20457;-81
2022/09/13 06:08:43;;;;;;;31.77;29.87;;;16.70;97.10;;;;;;5020625;28;20736;-81
2022/09/13 06:11:12;;;;;;;24.40;22.70;;;16.70;95.70;;;;;;5023023;28;20464;-84
2022/09/13 06:13:39;;;;;;;46.30;44.20;;;16.80;96.20;;;;;;5024219;28;20485;-83
2022/09/13 06:16:08;;;;;;;53.93;51.67;;;16.90;97.40;;;;;;5024154;28;20467;-82
2022/09/13 06:18:37;;;;;;;57.30;54.50;;;16.90;97.10;;;;;;5021775;28;20529;-82
2022/09/13 06:21:07;;;;;;;31.47;29.90;;;17.00;97.20;;;;;;5021866;28;20511;-82
2022/09/13 06:23:33;;;;;;;14.87;13.30;;;17.20;96.90;;;;;;5022548;28;20491;-82
2022/09/13 06:26:04;;;;;;;15.20;8.73;;;17.30;95.30;;;;;;5021200;28;20462;-82
2022/09/13 06:28:31;;;;;;;9.87;8.07;;;17.20;93.90;;;;;;5022433;28;20448;-82
2022/09/13 06:31:02;;;;;;;24.90;23.40;;;17.40;94.00;;;;;;5021834;28;20486;-82
2022/09/13 06:33:29;;;;;;;45.47;43.37;;;17.30;95.20;;;;;;5020982;28;20481;-82
2022/09/13 06:36:01;;;;;;;24.77;22.93;;;17.60;95.90;;;;;;5020522;28;20461;-82
2022/09/13 06:38:28;;;;;;;14.20;11.50;;;17.80;94.90;;;;;;5019520;28;20438;-82
2022/09/13 06:41:05;;;;;;;12.47;11.27;;;17.80;94.20;;;;;;5021161;28;20529;-82
2022/09/13 06:43:32;;;;;;;12.47;7.80;;;17.70;94.10;;;;;;5020245;28;20528;-82
2022/09/13 06:46:03;;;;;;;12.77;6.73;;;17.90;93.60;;;;;;5020813;28;20452;-82
2022/09/13 06:48:35;;;;;;;13.83;7.37;;;18.00;93.70;;;;;;5021462;28;20459;-82
2022/09/13 06:51:04;;;;;;;9.13;6.73;;;18.10;93.70;;;;;;5021206;28;20459;-81
2022/09/13 06:53:32;;;;;;;9.03;6.00;;;18.10;93.10;;;;;;5021300;28;20484;-82
2022/09/13 06:56:06;;;;;;;11.57;6.37;;;18.20;92.50;;;;;;5020428;28;20481;-81
2022/09/13 06:58:33;;;;;;;11.43;6.80;;;18.30;92.70;;;;;;5021454;28;20542;-81
2022/09/13 07:01:10;;;;;;;8.70;5.43;;;18.40;93.10;;;;;;5021289;28;20463;-82
2022/09/13 07:03:37;;;;;;;7.93;6.30;;;18.40;92.40;;;;;;5021538;28;20510;-82
2022/09/13 07:06:08;;;;;;;10.63;6.80;;;18.40;92.10;;;;;;5020146;28;20456;-82
2022/09/13 07:08:35;;;;;;;13.23;9.90;;;18.60;92.90;;;;;;5021403;28;20453;-82
2022/09/13 07:11:01;;;;;;;11.27;9.93;;;18.70;93.00;;;;;;5019911;28;20455;-82
2022/09/13 07:13:30;;;;;;;12.70;6.80;;;18.80;92.80;;;;;;5020484;28;20512;-82
2022/09/13 07:15:56;;;;;;;6.67;5.33;;;18.80;91.80;;;;;;5020655;28;20463;-82
2022/09/13 07:18:23;;;;;;;8.17;4.80;;;18.90;91.30;;;;;;5020790;28;20454;-82
2022/09/13 07:20:50;;;;;;;12.50;5.90;;;19.00;91.30;;;;;;5020071;28;20463;-82
2022/09/13 07:23:16;;;;;;;8.70;4.97;;;19.20;90.60;;;;;;5019120;28;21020;-83
2022/09/13 07:25:43;;;;;;;8.40;5.37;;;19.20;90.40;;;;;;5020854;28;20478;-82
2022/09/13 07:28:10;;;;;;;7.70;4.83;;;19.30;88.20;;;;;;5020408;28;20462;-82
2022/09/13 07:30:38;;;;;;;8.40;5.10;;;19.50;88.80;;;;;;5020476;28;20449;-83
2022/09/13 07:33:04;;;;;;;10.23;4.73;;;19.60;86.00;;;;;;5020328;28;20470;-82
2022/09/13 07:35:31;;;;;;;10.00;5.50;;;19.80;85.90;;;;;;5019979;28;20980;-82
2022/09/13 07:37:58;;;;;;;13.57;5.40;;;19.90;84.90;;;;;;5019709;28;20473;-81
2022/09/13 07:40:25;;;;;;;11.23;5.87;;;20.00;84.40;;;;;;5019093;28;20450;-81
2022/09/13 07:42:51;;;;;;;10.13;6.17;;;20.00;84.10;;;;;;5019550;28;20450;-82
2022/09/13 07:45:18;;;;;;;12.13;5.23;;;20.20;84.30;;;;;;5021008;28;20457;-83
2022/09/13 07:47:47;;;;;;;8.00;5.20;;;20.30;82.30;;;;;;5020838;28;20494;-83
2022/09/13 07:50:14;;;;;;;13.20;5.80;;;20.40;82.60;;;;;;5020249;28;20840;-83
2022/09/13 07:52:41;;;;;;;8.13;4.67;;;20.60;83.00;;;;;;5021588;28;20454;-82
2022/09/13 07:55:08;;;;;;;8.23;4.63;;;20.90;82.00;;;;;;5020363;28;20867;-82
2022/09/13 07:57:35;;;;;;;11.23;5.13;;;21.00;81.20;;;;;;5019933;28;20464;-82
2022/09/13 08:00:04;;;;;;;10.30;5.63;;;21.30;80.80;;;;;;5020665;28;20455;-83
2022/09/13 08:02:36;;;;;;;7.50;4.60;;;21.50;79.50;;;;;;5018998;28;20457;-83
2022/09/13 08:05:07;;;;;;;8.53;4.70;;;21.70;79.70;;;;;;5019292;28;20481;-82
2022/09/13 08:07:34;;;;;;;7.30;3.90;;;21.80;76.50;;;;;;5020132;28;20454;-82
2022/09/13 08:10:01;;;;;;;11.00;4.37;;;21.90;74.40;;;;;;5021430;28;20826;-82
2022/09/13 08:12:28;;;;;;;9.90;3.90;;;22.00;72.60;;;;;;5020973;28;20445;-81
2022/09/13 08:14:54;;;;;;;24.87;4.40;;;22.30;74.30;;;;;;5020759;28;20592;-83
2022/09/13 08:17:21;;;;;;;10.03;4.20;;;22.50;72.40;;;;;;5022780;28;20462;-84
2022/09/13 08:19:48;;;;;;;6.07;3.47;;;23.00;68.90;;;;;;5022521;28;20467;-83
2022/09/13 08:22:17;;;;;;;8.50;5.40;;;23.00;67.70;;;;;;5025715;28;20423;-83
2022/09/13 08:24:44;;;;;;;10.70;5.40;;;23.20;69.30;;;;;;5024594;28;20473;-83
2022/09/13 08:27:12;;;;;;;11.67;4.60;;;23.60;67.70;;;;;;5022521;28;20466;-83
2022/09/13 08:29:39;;;;;;;9.53;4.40;;;23.60;65.20;;;;;;5022824;28;20464;-82
2022/09/13 08:32:05;;;;;;;8.70;4.73;;;23.80;65.30;;;;;;5019271;28;20454;-81
2022/09/13 08:34:32;;;;;;;9.97;3.80;;;24.00;62.90;;;;;;5016784;28;20487;-84
2022/09/13 08:36:59;;;;;;;9.83;4.10;;;24.10;63.30;;;;;;5014323;28;20460;-84
2022/09/13 08:39:28;;;;;;;8.27;3.10;;;24.50;60.20;;;;;;5014729;28;20459;-83
2022/09/13 08:42:25;;;;;;;10.70;4.00;;;24.50;57.40;;;;;;5014161;28;20458;-85
2022/09/13 08:44:56;;;;;;;7.67;3.30;;;25.00;55.20;;;;;;5014594;28;21009;-84
2022/09/13 08:47:38;;;;;;;9.40;3.87;;;24.50;54.40;;;;;;5014835;28;20455;-85
2022/09/13 08:50:12;;;;;;;7.93;3.17;;;24.50;52.90;;;;;;5014741;28;20532;-84
2022/09/13 08:53:02;;;;;;;12.87;4.20;;;24.30;50.90;;;;;;5014754;28;20462;-83
2022/09/13 08:55:46;;;;;;;11.03;2.97;;;24.00;50.60;;;;;;5014318;28;20452;-86
2022/09/13 08:58:28;;;;;;;8.40;2.70;;;24.40;50.70;;;;;;5014161;28;20811;-84
2022/09/13 09:01:02;;;;;;;7.33;3.53;;;24.50;48.60;;;;;;5014042;28;20948;-86
2022/09/13 09:03:38;;;;;;;12.43;3.40;;;24.40;48.50;;;;;;5013632;28;21007;-84
2022/09/13 09:06:13;;;;;;;12.33;3.43;;;24.70;48.20;;;;;;5013577;28;20448;-82
2022/09/13 09:08:46;;;;;;;11.23;3.23;;;24.80;48.80;;;;;;5014152;28;20448;-84
2022/09/13 09:11:22;;;;;;;7.40;3.43;;;24.80;48.80;;;;;;5014136;28;20433;-84
2022/09/13 09:13:54;;;;;;;14.40;2.90;;;24.70;46.90;;;;;;5013758;28;20493;-84
2022/09/13 09:16:30;;;;;;;7.83;3.60;;;24.90;47.00;;;;;;5015793;28;20457;-83
2022/09/13 09:19:04;;;;;;;12.80;3.27;;;25.00;46.30;;;;;;5016539;28;20455;-84
2022/09/13 09:21:32;;;;;;;8.13;3.40;;;25.10;43.70;;;;;;5014462;28;20513;-82
2022/09/13 09:24:02;;;;;;;20.77;3.77;;;25.40;41.40;;;;;;5014620;28;20497;-84
2022/09/13 09:26:31;;;;;;;15.03;3.00;;;25.50;39.00;;;;;;5015026;28;20449;-83
2022/09/13 09:29:00;;;;;;;7.40;2.93;;;25.60;39.30;;;;;;5013687;28;21050;-84
2022/09/13 09:31:34;;;;;;;8.57;3.07;;;26.10;40.70;;;;;;5014288;28;20449;-85
2022/09/13 09:34:12;;;;;;;6.33;3.07;;;26.10;34.00;;;;;;5014646;28;20503;-83
2022/09/13 09:36:42;;;;;;;11.70;3.83;;;26.20;36.50;;;;;;5013920;28;20460;-84
2022/09/13 09:39:12;;;;;;;9.20;3.40;;;26.70;32.80;;;;;;5013692;28;20453;-85
2022/09/13 09:41:41;;;;;;;10.33;5.20;;;26.80;31.10;;;;;;5013408;28;20511;-84
2022/09/13 09:44:17;;;;;;;13.33;3.70;;;27.50;32.50;;;;;;5013295;28;20488;-84
2022/09/13 09:46:48;;;;;;;12.03;3.97;;;27.90;28.60;;;;;;5014183;28;20929;-84
2022/09/13 09:52:06;;;;;;;12.53;4.13;;;28.50;23.40;;;;;;5009892;28;20812;-84
2022/09/13 09:54:34;;;;;;;9.63;4.30;;;28.20;23.80;;;;;;5012321;28;20571;-84
2022/09/13 09:57:02;;;;;;;10.93;4.17;;;29.00;23.50;;;;;;5012870;28;20451;-85
2022/09/13 09:59:31;;;;;;;9.20;4.10;;;29.20;23.50;;;;;;5013155;28;20464;-84
2022/09/13 10:01:59;;;;;;;11.07;3.60;;;29.80;20.70;;;;;;5013498;28;20457;-84
2022/09/13 10:04:26;;;;;;;10.70;3.30;;;30.20;18.70;;;;;;5013253;28;20527;-83
2022/09/13 10:07:10;;;;;;;8.03;2.53;;;30.90;15.30;;;;;;5012121;28;20834;-84
2022/09/13 10:09:38;;;;;;;7.57;3.17;;;31.20;11.70;;;;;;5012477;28;20452;-86
2022/09/13 10:12:07;;;;;;;6.87;3.27;;;30.70;13.90;;;;;;5012841;28;20515;-87
2022/09/13 10:14:39;;;;;;;9.70;3.40;;;30.10;12.20;;;;;;5012371;28;20512;-84
2022/09/13 10:17:18;;;;;;;8.10;3.33;;;30.20;10.90;;;;;;5021913;28;20560;-83
2022/09/13 10:19:53;;;;;;;6.50;2.90;;;31.10;8.00;;;;;;5024478;28;20984;-83
2022/09/13 10:22:21;;;;;;;7.63;3.07;;;31.20;8.80;;;;;;5020870;28;20618;-83
2022/09/13 10:24:49;;;;;;;7.20;3.17;;;31.30;8.50;;;;;;5018281;28;20469;-83
2022/09/13 10:27:31;;;;;;;8.80;2.90;;;31.70;7.20;;;;;;5018453;28;20461;-83
2022/09/13 10:30:05;;;;;;;6.33;2.37;;;32.00;5.90;;;;;;5018501;28;20437;-83
2022/09/13 10:32:33;;;;;;;8.53;2.80;;;32.10;7.70;;;;;;5019874;28;20468;-82
2022/09/13 10:35:07;;;;;;;6.20;2.57;;;32.50;4.40;;;;;;5019915;28;20480;-83
2022/09/13 10:37:36;;;;;;;7.53;2.23;;;32.00;1.20;;;;;;5019649;28;20441;-83
2022/09/13 10:40:08;;;;;;;10.80;2.87;;;31.60;3.90;;;;;;5024030;28;20832;-84
2022/09/13 10:42:36;;;;;;;8.73;2.50;;;30.70;3.40;;;;;;5025782;28;20449;-84
2022/09/13 10:45:05;;;;;;;6.70;2.90;;;30.00;8.10;;;;;;5026070;28;20472;-83
2022/09/13 10:47:35;;;;;;;8.00;3.27;;;29.60;12.30;;;;;;5024636;28;20476;-85
2022/09/13 10:50:19;;;;;;;12.67;3.50;;;29.40;11.40;;;;;;5027413;28;20449;-84
2022/09/13 10:52:48;;;;;;;11.60;3.90;;;29.00;12.40;;;;;;5027155;28;20464;-84
2022/09/13 10:55:28;;;;;;;7.63;2.90;;;28.80;12.70;;;;;;5025899;28;20487;-83
2022/09/13 10:58:13;;;;;;;7.20;2.77;;;28.50;13.50;;;;;;5026770;28;20480;-82
2022/09/13 11:01:00;;;;;;;7.43;2.50;;;28.90;11.80;;;;;;5026740;28;20459;-83
2022/09/13 11:03:38;;;;;;;13.73;2.80;;;29.40;11.60;;;;;;5003335;28;20845;-81
2022/09/13 11:06:11;;;;;;;9.10;2.17;;;29.00;9.90;;;;;;5025608;28;20457;-84
2022/09/13 11:08:47;;;;;;;8.10;1.93;;;29.60;10.70;;;;;;5025539;28;20914;-84
2022/09/13 11:11:22;;;;;;;7.33;2.30;;;29.90;10.80;;;;;;5022711;28;20433;-82
2022/09/13 11:14:07;;;;;;;10.20;2.30;;;29.40;11.80;;;;;;5023295;28;20495;-82
2022/09/13 11:16:47;;;;;;;11.97;2.40;;;28.70;14.90;;;;;;5021544;28;20459;-82
2022/09/13 11:19:38;;;;;;;8.77;2.00;;;28.50;10.50;;;;;;5022979;28;20456;-83
2022/09/13 11:22:20;;;;;;;8.10;2.80;;;28.70;13.80;;;;;;5021232;28;20989;-83
2022/09/13 11:25:00;;;;;;;6.10;2.23;;;28.80;10.20;;;;;;5022440;28;20477;-83
2022/09/13 11:27:35;;;;;;;8.73;2.57;;;29.70;10.70;;;;;;5021786;28;20459;-84
2022/09/13 11:30:17;;;;;;;6.77;2.90;;;29.80;7.10;;;;;;5022398;28;20456;-84
2022/09/13 11:33:00;;;;;;;7.63;2.37;;;29.30;10.50;;;;;;5021732;28;20503;-84
2022/09/13 11:35:46;;;;;;;6.30;1.87;;;29.00;8.20;;;;;;5021415;28;20477;-83
2022/09/13 11:38:31;;;;;;;12.07;2.60;;;29.50;8.50;;;;;;5022128;28;20433;-84
2022/09/13 11:41:05;;;;;;;11.43;2.57;;;29.60;9.20;;;;;;5021147;28;20471;-85
2022/09/13 11:43:53;;;;;;;11.30;2.27;;;30.40;6.40;;;;;;5021636;28;20847;-84
2022/09/13 11:51:24;;;;;;;12.63;2.90;;;32.20;1.20;;;;;;5113108;27;1235234;-84
2022/09/13 11:54:02;;;;;;;12.17;2.30;;;33.30;1.00;;;;;;5125703;28;20468;-84
2022/09/13 11:56:34;;;;;;;5.00;2.20;;;31.70;1.80;;;;;;5123422;28;20453;-84
2022/09/13 11:59:15;;;;;;;6.70;2.77;;;31.60;1.00;;;;;;5123719;28;20449;-84
2022/09/13 12:01:45;;;;;;;7.23;2.60;;;31.20;2.60;;;;;;5122232;28;20456;-84
2022/09/13 12:04:18;;;;;;;9.50;3.60;;;30.80;3.40;;;;;;5123138;28;20468;-82
2022/09/13 12:06:53;;;;;;;7.93;3.43;;;30.70;4.60;;;;;;5123352;28;20452;-85
2022/09/13 12:09:25;;;;;;;7.90;2.70;;;30.50;3.70;;;;;;5122874;28;20460;-84
2022/09/13 12:11:58;;;;;;;8.10;3.33;;;31.20;2.40;;;;;;5119727;28;20461;-83
2022/09/13 12:14:30;;;;;;;9.30;3.00;;;31.40;1.80;;;;;;5118989;28;20508;-82
2022/09/13 12:17:03;;;;;;;5.77;2.37;;;31.10;1.00;;;;;;5119286;28;20440;-82
2022/09/13 12:19:40;;;;;;;6.40;2.67;;;31.90;2.80;;;;;;5119235;28;20453;-83
2022/09/13 12:22:09;;;;;;;8.43;2.80;;;32.90;1.00;;;;;;5118310;28;20905;-83
2022/09/13 12:24:41;;;;;;;6.90;2.90;;;33.10;1.00;;;;;;5117187;28;20472;-82
2022/09/13 12:27:13;;;;;;;7.70;2.97;;;33.70;1.00;;;;;;5118209;28;20423;-83
2022/09/13 12:29:45;;;;;;;11.47;3.00;;;34.20;1.00;;;;;;5118201;28;20449;-82
2022/09/13 12:32:13;;;;;;;8.40;2.30;;;34.10;1.00;;;;;;5117667;28;20453;-83
2022/09/13 12:34:45;;;;;;;7.43;3.37;;;34.00;1.00;;;;;;5117556;28;20832;-83
2022/09/13 12:37:43;;;;;;;6.13;3.00;;;34.30;1.00;;;;;;5117727;28;20440;-83
2022/09/13 12:40:27;;;;;;;11.73;3.30;;;34.10;1.00;;;;;;5115818;28;20481;-83
2022/09/13 12:43:37;;;;;;;8.10;3.53;;;34.60;1.00;;;;;;5117607;28;20435;-82
2022/09/13 12:46:26;;;;;;;9.77;3.07;;;34.90;1.00;;;;;;5055327;28;20447;-82
2022/09/13 12:49:21;;;;;;;8.60;2.70;;;35.30;1.00;;;;;;5117988;28;20429;-81
2022/09/13 12:52:06;;;;;;;8.80;2.40;;;35.70;1.00;;;;;;5117518;28;20431;-82
2022/09/13 12:55:03;;;;;;;9.43;2.20;;;35.30;1.00;;;;;;5114516;28;20946;-82
2022/09/13 12:57:40;;;;;;;14.03;2.07;;;35.00;1.00;;;;;;5113312;28;20449;-84
2022/09/13 13:00:20;;;;;;;9.23;2.93;;;34.00;1.00;;;;;;5111692;28;20499;-84
2022/09/13 13:02:56;;;;;;;5.90;1.90;;;33.60;1.00;;;;;;5097105;28;20511;-83
2022/09/13 13:05:27;;;;;;;14.00;2.20;;;33.90;1.00;;;;;;5098037;28;20510;-83